MDT24 ENZV-ENFL
Flight info
| Callsign | MDT24 |
|---|---|
| Flight time | 0h 45m |
| Altitude | 28000 |
| Route | GEDLU DCT OLDAS |
| Aircraft | TBM8/L-SDFGRWY/S |
Departure
| Time | 2026-05-08 16:01 |
|---|---|
| Airport | Stavanger Airport, Sola (ENZV) |
Arrival
| Time | 2026-05-08 16:47 |
|---|---|
| Airport | Florø Airport (ENFL) |
| Time | Latitude | Longitude | Altitude | Speed | Heading |
|---|---|---|---|---|---|
| 2026-05-08 15:51 | 58.88581 | 5.63300 | 24 ft | 0 kts | 322° |
| 2026-05-08 15:56 | 58.88604 | 5.63312 | 26 ft | 10 kts | 51° |
| 2026-05-08 15:56 | 58.88535 | 5.63394 | 26 ft | 17 kts | 171° |
| 2026-05-08 15:56 | 58.88412 | 5.63424 | 26 ft | 17 kts | 179° |
| 2026-05-08 15:57 | 58.88351 | 5.63429 | 26 ft | 6 kts | 184° |
| 2026-05-08 15:57 | 58.88402 | 5.63409 | 25 ft | 23 kts | 7° |
| 2026-05-08 15:57 | 58.88598 | 5.63423 | 26 ft | 30 kts | 357° |
| 2026-05-08 15:57 | 58.88705 | 5.63524 | 26 ft | 0 kts | 84° |
| 2026-05-08 15:59 | 58.88707 | 5.63558 | 28 ft | 11 kts | 83° |
| 2026-05-08 15:59 | 58.88709 | 5.63710 | 22 ft | 7 kts | 92° |
| 2026-05-08 15:59 | 58.88691 | 5.63762 | 23 ft | 7 kts | 165° |
| 2026-05-08 15:59 | 58.88686 | 5.63764 | 23 ft | 0 kts | 175° |
| 2026-05-08 16:01 | 58.88587 | 5.63764 | 24 ft | 41 kts | 181° |
| 2026-05-08 16:01 | 58.88115 | 5.63771 | 53 ft | 88 kts | 175° |
| 2026-05-08 16:01 | 58.87432 | 5.63943 | 282 ft | 111 kts | 173° |
| 2026-05-08 16:01 | 58.86629 | 5.63900 | 820 ft | 114 kts | 181° |
| 2026-05-08 16:02 | 58.85840 | 5.63904 | 1428 ft | 111 kts | 176° |
| 2026-05-08 16:02 | 58.85063 | 5.63924 | 2046 ft | 113 kts | 179° |
| 2026-05-08 16:02 | 58.84265 | 5.63917 | 2629 ft | 115 kts | 179° |
| 2026-05-08 16:02 | 58.83516 | 5.63450 | 3191 ft | 122 kts | 222° |
| 2026-05-08 16:03 | 58.83217 | 5.61878 | 3775 ft | 132 kts | 261° |
| 2026-05-08 16:03 | 58.83538 | 5.60152 | 4361 ft | 142 kts | 292° |
| 2026-05-08 16:03 | 58.84003 | 5.58490 | 4909 ft | 140 kts | 287° |
| 2026-05-08 16:03 | 58.84441 | 5.56792 | 5427 ft | 142 kts | 289° |
| 2026-05-08 16:04 | 58.84887 | 5.55112 | 5941 ft | 143 kts | 288° |
| 2026-05-08 16:04 | 58.85338 | 5.53388 | 6440 ft | 144 kts | 289° |
| 2026-05-08 16:04 | 58.85904 | 5.51748 | 6891 ft | 154 kts | 315° |
| 2026-05-08 16:04 | 58.86944 | 5.51236 | 7358 ft | 161 kts | 6° |
| 2026-05-08 16:05 | 58.88053 | 5.51614 | 7842 ft | 162 kts | 7° |
| 2026-05-08 16:05 | 58.89175 | 5.51903 | 8304 ft | 163 kts | 6° |
| 2026-05-08 16:05 | 58.90309 | 5.52193 | 8763 ft | 165 kts | 6° |
| 2026-05-08 16:05 | 58.91452 | 5.52492 | 9229 ft | 166 kts | 6° |
| 2026-05-08 16:06 | 58.92604 | 5.52788 | 9699 ft | 167 kts | 6° |
| 2026-05-08 16:06 | 58.93747 | 5.53079 | 10164 ft | 168 kts | 6° |
| 2026-05-08 16:06 | 58.94915 | 5.53372 | 10572 ft | 170 kts | 6° |
| 2026-05-08 16:06 | 58.96088 | 5.53668 | 10992 ft | 171 kts | 5° |
| 2026-05-08 16:07 | 58.97266 | 5.53963 | 11442 ft | 171 kts | 5° |
| 2026-05-08 16:07 | 58.98452 | 5.54267 | 11878 ft | 172 kts | 5° |
| 2026-05-08 16:07 | 58.99643 | 5.54573 | 12314 ft | 173 kts | 5° |
| 2026-05-08 16:07 | 59.00849 | 5.54881 | 12745 ft | 175 kts | 4° |
| 2026-05-08 16:08 | 59.02058 | 5.55190 | 13182 ft | 176 kts | 4° |
| 2026-05-08 16:08 | 59.03282 | 5.55502 | 13610 ft | 178 kts | 4° |
| 2026-05-08 16:08 | 59.04499 | 5.55813 | 14025 ft | 179 kts | 3° |
| 2026-05-08 16:08 | 59.05740 | 5.56130 | 14408 ft | 181 kts | 3° |
| 2026-05-08 16:09 | 59.06994 | 5.56451 | 14795 ft | 182 kts | 3° |
| 2026-05-08 16:09 | 59.08250 | 5.56772 | 15176 ft | 183 kts | 2° |
| 2026-05-08 16:09 | 59.09514 | 5.57096 | 15568 ft | 184 kts | 2° |
| 2026-05-08 16:09 | 59.10788 | 5.57421 | 15962 ft | 185 kts | 2° |
| 2026-05-08 16:10 | 59.12068 | 5.57752 | 16365 ft | 186 kts | 2° |
| 2026-05-08 16:10 | 59.13354 | 5.58081 | 16753 ft | 187 kts | 2° |
| 2026-05-08 16:10 | 59.14649 | 5.58414 | 17127 ft | 188 kts | 1° |
| 2026-05-08 16:10 | 59.15953 | 5.58748 | 17493 ft | 190 kts | 1° |
| 2026-05-08 16:11 | 59.17266 | 5.59087 | 17879 ft | 190 kts | 1° |
| 2026-05-08 16:11 | 59.18582 | 5.59425 | 18268 ft | 192 kts | 1° |
| 2026-05-08 16:11 | 59.19907 | 5.59763 | 18618 ft | 193 kts | 0° |
| 2026-05-08 16:11 | 59.21243 | 5.60107 | 18947 ft | 194 kts | 1° |
| 2026-05-08 16:12 | 59.22582 | 5.60456 | 19284 ft | 194 kts | 1° |
| 2026-05-08 16:12 | 59.23912 | 5.60800 | 19602 ft | 195 kts | 0° |
| 2026-05-08 16:12 | 59.25258 | 5.61147 | 19914 ft | 196 kts | 0° |
| 2026-05-08 16:12 | 59.26611 | 5.61499 | 20231 ft | 197 kts | 0° |
| 2026-05-08 16:13 | 59.27972 | 5.61853 | 20550 ft | 197 kts | 0° |
| 2026-05-08 16:13 | 59.29338 | 5.62207 | 20866 ft | 198 kts | 0° |
| 2026-05-08 16:13 | 59.30706 | 5.62561 | 21176 ft | 199 kts | 0° |
| 2026-05-08 16:13 | 59.32082 | 5.62919 | 21482 ft | 200 kts | 0° |
| 2026-05-08 16:14 | 59.33469 | 5.63279 | 21803 ft | 200 kts | 0° |
| 2026-05-08 16:14 | 59.34854 | 5.63640 | 22116 ft | 201 kts | 360° |
| 2026-05-08 16:14 | 59.36296 | 5.64008 | 22188 ft | 218 kts | 0° |
| 2026-05-08 16:14 | 59.37854 | 5.64425 | 22200 ft | 235 kts | 1° |
| 2026-05-08 16:15 | 59.39508 | 5.64864 | 22202 ft | 250 kts | 1° |
| 2026-05-08 16:15 | 59.41283 | 5.65325 | 22200 ft | 264 kts | 2° |
| 2026-05-08 16:15 | 59.43141 | 5.65437 | 22204 ft | 270 kts | 348° |
| 2026-05-08 16:15 | 59.45044 | 5.65062 | 22199 ft | 280 kts | 349° |
| 2026-05-08 16:16 | 59.47018 | 5.64759 | 22191 ft | 288 kts | 350° |
| 2026-05-08 16:16 | 59.49033 | 5.64460 | 22199 ft | 293 kts | 350° |
| 2026-05-08 16:16 | 59.51082 | 5.64125 | 22196 ft | 297 kts | 349° |
| 2026-05-08 16:16 | 59.53160 | 5.63774 | 22196 ft | 302 kts | 349° |
| 2026-05-08 16:17 | 59.55265 | 5.63430 | 22195 ft | 305 kts | 349° |
| 2026-05-08 16:17 | 59.56676 | 5.63203 | 22193 ft | 306 kts | 350° |
| 2026-05-08 16:17 | 59.59527 | 5.62738 | 22197 ft | 308 kts | 349° |
| 2026-05-08 16:17 | 59.61643 | 5.62391 | 22190 ft | 310 kts | 349° |
| 2026-05-08 16:18 | 59.63797 | 5.62040 | 22192 ft | 311 kts | 349° |
| 2026-05-08 16:18 | 59.65959 | 5.61680 | 22195 ft | 312 kts | 349° |
| 2026-05-08 16:18 | 59.68128 | 5.61321 | 22196 ft | 314 kts | 350° |
| 2026-05-08 16:18 | 59.70305 | 5.60967 | 22187 ft | 315 kts | 349° |
| 2026-05-08 16:19 | 59.72488 | 5.60609 | 22196 ft | 315 kts | 349° |
| 2026-05-08 16:19 | 59.74680 | 5.60245 | 22189 ft | 316 kts | 349° |
| 2026-05-08 16:19 | 59.76870 | 5.59882 | 22198 ft | 316 kts | 349° |
| 2026-05-08 16:19 | 59.79060 | 5.59513 | 22191 ft | 316 kts | 349° |
| 2026-05-08 16:20 | 59.81255 | 5.59121 | 22187 ft | 316 kts | 349° |
| 2026-05-08 16:20 | 59.83448 | 5.58706 | 22193 ft | 316 kts | 349° |
| 2026-05-08 16:20 | 59.85640 | 5.58270 | 22195 ft | 317 kts | 348° |
| 2026-05-08 16:20 | 59.87835 | 5.57810 | 22195 ft | 318 kts | 348° |
| 2026-05-08 16:21 | 59.90036 | 5.57326 | 22192 ft | 317 kts | 348° |
| 2026-05-08 16:21 | 59.92230 | 5.56824 | 22192 ft | 316 kts | 347° |
| 2026-05-08 16:21 | 59.94389 | 5.56312 | 22189 ft | 316 kts | 347° |
| 2026-05-08 16:21 | 59.96576 | 5.55770 | 22197 ft | 317 kts | 347° |
| 2026-05-08 16:22 | 59.98763 | 5.55207 | 22191 ft | 317 kts | 347° |
| 2026-05-08 16:22 | 60.00949 | 5.54624 | 22191 ft | 317 kts | 346° |
| 2026-05-08 16:22 | 60.03136 | 5.54025 | 22192 ft | 317 kts | 346° |
| 2026-05-08 16:22 | 60.05304 | 5.53414 | 22188 ft | 316 kts | 346° |
| 2026-05-08 16:23 | 60.07491 | 5.52771 | 22192 ft | 316 kts | 345° |
| 2026-05-08 16:23 | 60.09665 | 5.52107 | 22190 ft | 316 kts | 345° |
| 2026-05-08 16:23 | 60.11848 | 5.51418 | 22188 ft | 316 kts | 345° |
| 2026-05-08 16:23 | 60.13991 | 5.50719 | 22192 ft | 316 kts | 344° |
| 2026-05-08 16:24 | 60.16161 | 5.49990 | 22191 ft | 316 kts | 344° |
| 2026-05-08 16:24 | 60.18327 | 5.49239 | 22188 ft | 316 kts | 343° |
| 2026-05-08 16:24 | 60.20497 | 5.48464 | 22191 ft | 316 kts | 343° |
| 2026-05-08 16:24 | 60.22655 | 5.47633 | 22192 ft | 315 kts | 339° |
| 2026-05-08 16:25 | 60.24689 | 5.46153 | 22191 ft | 309 kts | 330° |
| 2026-05-08 16:25 | 60.26686 | 5.44505 | 22189 ft | 311 kts | 333° |
| 2026-05-08 16:25 | 60.28789 | 5.43340 | 22185 ft | 317 kts | 343° |
| 2026-05-08 16:25 | 60.30965 | 5.42766 | 22188 ft | 320 kts | 348° |
| 2026-05-08 16:26 | 60.33178 | 5.42270 | 22190 ft | 319 kts | 346° |
| 2026-05-08 16:26 | 60.35369 | 5.41526 | 22189 ft | 318 kts | 342° |
| 2026-05-08 16:26 | 60.37539 | 5.40708 | 22192 ft | 318 kts | 343° |
| 2026-05-08 16:26 | 60.39732 | 5.39982 | 22194 ft | 319 kts | 345° |
| 2026-05-08 16:27 | 60.41925 | 5.39288 | 22187 ft | 319 kts | 344° |
| 2026-05-08 16:27 | 60.44111 | 5.38558 | 22189 ft | 317 kts | 343° |
| 2026-05-08 16:27 | 60.46291 | 5.37821 | 22179 ft | 317 kts | 343° |
| 2026-05-08 16:27 | 60.48464 | 5.37084 | 21909 ft | 325 kts | 344° |
| 2026-05-08 16:28 | 60.50711 | 5.36332 | 21647 ft | 330 kts | 344° |
| 2026-05-08 16:28 | 60.52996 | 5.35569 | 21365 ft | 334 kts | 344° |
| 2026-05-08 16:28 | 60.55332 | 5.34775 | 20798 ft | 346 kts | 345° |
| 2026-05-08 16:28 | 60.57715 | 5.33961 | 20239 ft | 349 kts | 345° |
| 2026-05-08 16:29 | 60.60116 | 5.33177 | 19696 ft | 349 kts | 346° |
| 2026-05-08 16:29 | 60.62521 | 5.32385 | 19157 ft | 350 kts | 345° |
| 2026-05-08 16:29 | 60.64928 | 5.31567 | 18623 ft | 351 kts | 345° |
| 2026-05-08 16:29 | 60.67342 | 5.30739 | 18065 ft | 352 kts | 346° |
| 2026-05-08 16:30 | 60.69726 | 5.29949 | 17528 ft | 350 kts | 346° |
| 2026-05-08 16:30 | 60.72150 | 5.29151 | 16986 ft | 347 kts | 346° |
| 2026-05-08 16:30 | 60.74494 | 5.28328 | 16464 ft | 344 kts | 345° |
| 2026-05-08 16:30 | 60.76841 | 5.27508 | 15947 ft | 341 kts | 346° |
| 2026-05-08 16:31 | 60.79187 | 5.26718 | 15345 ft | 341 kts | 346° |
| 2026-05-08 16:31 | 60.81536 | 5.25931 | 14721 ft | 341 kts | 346° |
| 2026-05-08 16:31 | 60.83876 | 5.25126 | 14111 ft | 339 kts | 346° |
| 2026-05-08 16:31 | 60.86179 | 5.24326 | 13328 ft | 340 kts | 346° |
| 2026-05-08 16:32 | 60.88483 | 5.23561 | 12526 ft | 333 kts | 347° |
| 2026-05-08 16:32 | 60.90763 | 5.22793 | 11735 ft | 329 kts | 347° |
| 2026-05-08 16:32 | 60.93006 | 5.21988 | 10972 ft | 325 kts | 347° |
| 2026-05-08 16:32 | 60.95222 | 5.21209 | 10220 ft | 320 kts | 348° |
| 2026-05-08 16:33 | 60.97405 | 5.20471 | 9438 ft | 317 kts | 348° |
| 2026-05-08 16:33 | 60.99569 | 5.19738 | 8632 ft | 313 kts | 348° |
| 2026-05-08 16:33 | 61.01705 | 5.18995 | 7837 ft | 309 kts | 348° |
| 2026-05-08 16:33 | 61.03807 | 5.18246 | 7180 ft | 302 kts | 348° |
| 2026-05-08 16:34 | 61.05805 | 5.17572 | 7052 ft | 282 kts | 351° |
| 2026-05-08 16:34 | 61.07085 | 5.17515 | 7004 ft | 273 kts | 4° |
| 2026-05-08 16:34 | 61.08926 | 5.18279 | 6845 ft | 271 kts | 17° |
| 2026-05-08 16:34 | 61.10718 | 5.19455 | 6639 ft | 269 kts | 16° |
| 2026-05-08 16:35 | 61.13094 | 5.20892 | 6366 ft | 267 kts | 16° |
| 2026-05-08 16:35 | 61.14299 | 5.21632 | 6218 ft | 267 kts | 16° |
| 2026-05-08 16:35 | 61.16074 | 5.22754 | 6018 ft | 266 kts | 17° |
| 2026-05-08 16:35 | 61.17817 | 5.23853 | 5999 ft | 258 kts | 16° |
| 2026-05-08 16:36 | 61.19518 | 5.24918 | 6000 ft | 253 kts | 16° |
| 2026-05-08 16:36 | 61.21196 | 5.25963 | 6002 ft | 251 kts | 17° |
| 2026-05-08 16:36 | 61.22867 | 5.27015 | 5996 ft | 249 kts | 17° |
| 2026-05-08 16:36 | 61.24521 | 5.28058 | 6003 ft | 248 kts | 16° |
| 2026-05-08 16:37 | 61.26169 | 5.29089 | 5991 ft | 246 kts | 16° |
| 2026-05-08 16:37 | 61.27782 | 5.30105 | 6003 ft | 245 kts | 16° |
| 2026-05-08 16:37 | 61.29418 | 5.31140 | 5890 ft | 248 kts | 17° |
| 2026-05-08 16:37 | 61.31090 | 5.32204 | 5678 ft | 254 kts | 17° |
| 2026-05-08 16:38 | 61.32782 | 5.33274 | 5450 ft | 255 kts | 16° |
| 2026-05-08 16:38 | 61.34467 | 5.34340 | 5410 ft | 251 kts | 17° |
| 2026-05-08 16:38 | 61.36113 | 5.35385 | 5410 ft | 244 kts | 17° |
| 2026-05-08 16:38 | 61.37733 | 5.36407 | 5416 ft | 244 kts | 17° |
| 2026-05-08 16:39 | 61.39350 | 5.37438 | 5406 ft | 241 kts | 17° |
| 2026-05-08 16:39 | 61.40955 | 5.38455 | 5404 ft | 241 kts | 17° |
| 2026-05-08 16:39 | 61.42564 | 5.39481 | 5402 ft | 241 kts | 17° |
| 2026-05-08 16:39 | 61.44177 | 5.40433 | 5405 ft | 240 kts | 8° |
| 2026-05-08 16:40 | 61.45790 | 5.40055 | 5410 ft | 230 kts | 333° |
| 2026-05-08 16:40 | 61.47147 | 5.38328 | 5409 ft | 230 kts | 326° |
| 2026-05-08 16:40 | 61.48696 | 5.37525 | 5381 ft | 235 kts | 360° |
| 2026-05-08 16:40 | 61.50286 | 5.37955 | 5390 ft | 225 kts | 9° |
| 2026-05-08 16:41 | 61.51792 | 5.38463 | 5377 ft | 218 kts | 8° |
| 2026-05-08 16:41 | 61.53278 | 5.38953 | 5374 ft | 214 kts | 7° |
| 2026-05-08 16:41 | 61.54724 | 5.39465 | 5388 ft | 208 kts | 8° |
| 2026-05-08 16:42 | 61.57699 | 5.40066 | 4706 ft | 225 kts | 336° |
| 2026-05-08 16:42 | 61.58811 | 5.37815 | 4008 ft | 221 kts | 292° |
| 2026-05-08 16:42 | 61.59027 | 5.35027 | 3975 ft | 175 kts | 255° |
| 2026-05-08 16:42 | 61.58512 | 5.32960 | 3854 ft | 157 kts | 229° |
| 2026-05-08 16:43 | 61.57947 | 5.31169 | 3615 ft | 145 kts | 235° |
| 2026-05-08 16:43 | 61.57513 | 5.29119 | 3376 ft | 161 kts | 249° |
| 2026-05-08 16:43 | 61.57409 | 5.26786 | 3114 ft | 161 kts | 269° |
| 2026-05-08 16:43 | 61.57551 | 5.24491 | 2875 ft | 151 kts | 274° |
| 2026-05-08 16:44 | 61.57711 | 5.22477 | 2619 ft | 132 kts | 272° |
| 2026-05-08 16:44 | 61.57832 | 5.20632 | 2381 ft | 124 kts | 271° |
| 2026-05-08 16:44 | 61.57947 | 5.18871 | 2147 ft | 119 kts | 272° |
| 2026-05-08 16:44 | 61.58064 | 5.17215 | 1900 ft | 111 kts | 272° |
| 2026-05-08 16:45 | 61.58169 | 5.15644 | 1643 ft | 106 kts | 272° |
| 2026-05-08 16:45 | 61.58278 | 5.14162 | 1447 ft | 99 kts | 271° |
| 2026-05-08 16:45 | 61.58405 | 5.12681 | 1254 ft | 106 kts | 273° |
| 2026-05-08 16:45 | 61.58560 | 5.11135 | 1020 ft | 110 kts | 273° |
| 2026-05-08 16:46 | 61.58704 | 5.09527 | 744 ft | 115 kts | 271° |
| 2026-05-08 16:46 | 61.58852 | 5.07879 | 537 ft | 113 kts | 268° |
| 2026-05-08 16:46 | 61.58876 | 5.06364 | 330 ft | 98 kts | 255° |
| 2026-05-08 16:46 | 61.58754 | 5.04980 | 204 ft | 95 kts | 242° |
| 2026-05-08 16:47 | 61.58561 | 5.03659 | 106 ft | 97 kts | 246° |
| 2026-05-08 16:47 | 61.58359 | 5.02376 | 51 ft | 90 kts | 238° |
| 2026-05-08 16:47 | 61.58174 | 5.01398 | 35 ft | 42 kts | 251° |
| 2026-05-08 16:47 | 61.58161 | 5.01228 | 36 ft | 8 kts | 26° |
| 2026-05-08 16:48 | 61.58186 | 5.01339 | 35 ft | 10 kts | 71° |
| 2026-05-08 16:48 | 61.58208 | 5.01501 | 35 ft | 12 kts | 71° |
| 2026-05-08 16:48 | 61.58241 | 5.01724 | 35 ft | 21 kts | 72° |
| 2026-05-08 16:48 | 61.58293 | 5.02070 | 30 ft | 29 kts | 71° |
| 2026-05-08 16:49 | 61.58356 | 5.02398 | 25 ft | 17 kts | 64° |
| 2026-05-08 16:49 | 61.58417 | 5.02468 | 24 ft | 12 kts | 339° |
| 2026-05-08 16:49 | 61.58500 | 5.02437 | 20 ft | 11 kts | 31° |
| 2026-05-08 16:49 | 61.58521 | 5.02486 | 20 ft | 11 kts | 65° |
| 2026-05-08 16:50 | 61.58543 | 5.02552 | 20 ft | 6 kts | 8° |
| 2026-05-08 16:50 | 61.58552 | 5.02535 | 20 ft | 0 kts | 257° |
| 2026-05-08 16:50 | 61.58552 | 5.02534 | 20 ft | 0 kts | 257° |